Latest Weather Observations for Esperance Airport

IDW60801

Issued at 6:02 am WST Saturday 28 March 2015 (issued every 30 minutes, with the page automatically refreshed every 10 minutes)

About weather observations | Map of weather stations | Latest weather observations for WA | Other Formats
Station Details ID: 009542 Name: ESPERANCE AERO Lat: -33.68 Lon: 121.83 Height: 142.0 m
Data from the previous 72 hours. | See also: Recent months at Esperance Airport
Date/Time
WST
Temp
°C
App
Temp
°C
Dew
Point
Rel
Hum
%
Delta-T
°C
Wind Press
QNH
hPa
Press
MSL
hPa
Rain
since 9 am
mm
Dir
 
Spd
km/h
Gust
km/h
Spd
kts
Gust
kts
28/06:00am 12.3 10.6 11.2 93 0.6 N 11 17 6 9 1020.0 1019.6 0.0
28/05:30am 12.4 10.7 11.1 92 0.7 N 11 15 6 8 1019.7 1019.2 0.0
28/05:00am 12.6 10.5 11.2 91 0.7 N 13 15 7 8 1019.6 1019.1 0.0
28/04:30am 13.2 10.9 11.6 90 0.9 N 15 19 8 10 1018.9 1018.4 0.0
28/04:00am 12.9 10.9 11.5 91 0.7 N 13 17 7 9 1019.0 1018.5 0.0
28/03:30am 12.6 10.5 11.0 90 0.8 N 13 15 7 8 1019.1 1018.6 0.0
28/03:00am 12.8 10.4 11.4 91 0.7 N 15 17 8 9 1019.1 1018.6 0.0
28/02:30am 12.1 10.6 10.5 90 0.8 N 9 9 5 5 1019.3 1018.8 0.0
28/02:00am 12.5 11.0 10.4 87 1.1 NNW 9 11 5 6 1019.6 1019.1 0.0
28/01:30am 14.4 13.7 11.4 82 1.6 NNE 6 9 3 5 1019.4 1018.9 0.0
28/01:00am 14.8 13.2 11.4 80 1.8 N 11 15 6 8 1019.5 1019.0 0.0
28/12:30am 15.4 12.7 11.6 78 2.1 NNE 17 22 9 12 1019.6 1019.1 0.0
28/12:00am 15.2 12.0 11.4 78 2.0 NNE 19 24 10 13 1019.7 1019.2 0.0
 
Date/Time
WST
Temp
°C
App
Temp
°C
Dew
Point
Rel
Hum
%
Delta-T
°C
Wind Press
QNH
hPa
Press
MSL
hPa
Rain
since 9 am
mm
Dir
 
Spd
km/h
Gust
km/h
Spd
kts
Gust
kts
27/11:30pm 15.5 12.7 11.5 77 2.2 N 17 22 9 12 1020.2 1019.8 0.0
27/11:00pm 15.6 13.2 11.4 76 2.3 N 15 22 8 12 1020.6 1020.2 0.0
27/10:30pm 15.9 13.1 11.5 75 2.4 NNE 17 22 9 12 1020.9 1020.5 0.0
27/10:00pm 16.2 13.1 11.6 74 2.5 NNE 19 24 10 13 1021.0 1020.6 0.0
27/09:30pm 16.5 13.5 11.9 74 2.5 NNE 19 30 10 16 1021.3 1020.9 0.0
27/09:00pm 16.7 13.5 11.8 73 2.7 NNE 20 30 11 16 1021.5 1021.1 0.0
27/08:30pm 16.8 13.5 11.7 72 2.8 NNE 20 30 11 16 1021.5 1021.1 0.0
27/08:00pm 16.7 13.6 11.6 72 2.8 N 19 24 10 13 1021.5 1021.1 0.0
27/07:30pm 16.2 14.0 10.9 71 2.8 NNE 13 20 7 11 1021.2 1020.8 0.0
27/07:00pm 16.7 14.2 11.2 70 3.0 NNE 15 20 8 11 1020.9 1020.5 0.0
27/06:30pm 16.8 14.3 11.1 69 3.1 NNE 15 19 8 10 1020.4 1020.0 0.0
27/06:00pm 17.7 14.5 11.3 66 3.5 NNE 19 24 10 13 1020.3 1019.9 0.0
27/05:30pm 18.8 13.8 11.1 61 4.2 N 28 33 15 18 1020.2 1019.8 0.0
27/05:00pm 20.7 17.5 9.9 50 5.8 NNE 17 26 9 14 1020.0 1019.6 0.0
27/04:30pm 21.3 18.2 8.9 45 6.6 NNE 15 20 8 11 1020.3 1019.9 0.0
27/04:00pm 21.7 18.1 8.2 42 7.1 N 17 22 9 12 1020.6 1020.2 0.0
27/03:30pm 21.7 17.4 7.9 41 7.2 N 20 28 11 15 1020.9 1020.5 0.0
27/03:00pm 22.1 17.3 7.5 39 7.6 NNE 22 32 12 17 1021.1 1020.7 0.0
27/02:30pm 23.0 18.4 6.7 35 8.4 NNE 20 28 11 15 1021.2 1020.8 0.0
27/02:00pm 24.7 19.4 6.9 32 9.3 N 24 35 13 19 1021.1 1020.7 0.0
27/01:30pm 24.1 19.5 6.4 32 9.2 N 20 32 11 17 1021.5 1021.1 0.0
27/01:00pm 24.7 19.2 7.4 33 9.1 N 26 37 14 20 1021.8 1021.4 0.0
27/12:30pm 26.2 21.9 7.7 31 9.9 N 20 32 11 17 1022.0 1021.6 0.0
27/12:00pm 23.4 18.0 6.2 33 8.8 NNE 24 35 13 19 1022.5 1022.1 0.0
27/11:30am 23.3 18.8 7.0 35 8.5 NNE 20 33 11 18 1023.2 1022.8 0.0
27/11:00am 22.2 16.5 6.8 37 7.9 N 26 37 14 20 1023.9 1023.4 0.0
27/10:30am 22.2 17.8 7.2 38 7.8 NNE 20 28 11 15 1024.2 1023.7 0.0
27/10:00am 22.6 18.0 8.3 40 7.6 NNE 22 33 12 18 1024.5 1024.0 0.0
27/09:30am 21.2 16.8 9.1 46 6.4 NNE 22 32 12 17 1025.0 1024.5 0.0
27/09:00am 19.5 13.8 8.5 49 5.7 NNE 28 39 15 21 1025.3 1024.8 0.0
27/08:30am 18.6 13.9 9.1 54 5.0 NNE 24 37 13 20 1025.5 1025.0 0.0
27/08:00am 15.9 11.2 9.1 64 3.5 NNE 24 32 13 17 1025.6 1025.1 0.0
27/07:30am 14.4 10.1 9.2 71 2.7 NNE 22 35 12 19 1025.7 1025.2 0.0
27/07:00am 13.1 8.7 9.0 76 2.1 NNE 22 30 12 16 1025.6 1025.1 0.0
27/06:30am 12.4 8.4 8.9 79 1.8 NNE 20 28 11 15 1025.7 1025.2 0.0
27/06:00am 12.8 9.1 9.3 79 1.8 NE 19 28 10 15 1025.5 1025.0 0.0
27/05:30am 12.8 8.9 9.4 80 1.7 NNE 20 28 11 15 1025.7 1025.2 0.0
27/05:00am 12.7 8.8 9.5 81 1.6 NNE 20 26 11 14 1025.6 1025.1 0.0
27/04:30am 12.6 8.9 9.6 82 1.5 NNE 19 28 10 15 1025.5 1025.0 0.0
27/04:00am 12.5 9.2 9.5 82 1.5 NNE 17 24 9 13 1025.6 1025.1 0.0
27/03:30am 12.6 8.9 9.4 81 1.6 NNE 19 26 10 14 1025.5 1025.0 0.0
27/03:00am 13.2 9.3 9.5 78 1.9 NE 20 30 11 16 1025.5 1025.0 0.0
27/02:30am 13.2 9.3 9.5 78 1.9 NNE 20 33 11 18 1025.8 1025.3 0.0
27/02:00am 13.3 9.0 9.4 77 2.0 NNE 22 28 12 15 1025.9 1025.4 0.0
27/01:30am 13.6 9.7 9.5 76 2.1 NNE 20 32 11 17 1026.0 1025.6 0.0
27/01:00am 13.7 9.8 9.4 75 2.2 NE 20 30 11 16 1026.2 1025.8 0.0
27/12:30am 13.7 10.0 9.4 75 2.2 NE 19 28 10 15 1026.4 1026.0 0.0
27/12:00am 13.9 10.2 9.3 74 2.3 NE 19 28 10 15 1026.8 1026.4 0.0
 
Date/Time
WST
Temp
°C
App
Temp
°C
Dew
Point
Rel
Hum
%
Delta-T
°C
Wind Press
QNH
hPa
Press
MSL
hPa
Rain
since 9 am
mm
Dir
 
Spd
km/h
Gust
km/h
Spd
kts
Gust
kts
26/11:30pm 14.0 10.2 9.2 73 2.5 NE 19 28 10 15 1027.1 1026.7 0.0
26/11:00pm 14.2 10.8 9.2 72 2.6 NE 17 30 9 16 1027.2 1026.8 0.0
26/10:30pm 14.2 10.8 9.0 71 2.7 NE 17 24 9 13 1027.4 1027.0 0.0
26/10:00pm 14.2 10.7 8.6 69 2.8 ENE 17 26 9 14 1027.2 1026.8 0.0
26/09:30pm 14.4 10.9 8.6 68 2.9 ENE 17 26 9 14 1027.5 1027.1 0.0
26/09:00pm 14.7 10.8 8.6 67 3.1 ENE 19 28 10 15 1027.6 1027.2 0.0
26/08:30pm 15.4 11.3 8.6 64 3.5 E 20 28 11 15 1027.7 1027.3 0.0
26/08:00pm 15.9 11.8 8.6 62 3.7 E 20 28 11 15 1027.8 1027.4 0.0
26/07:30pm 16.3 11.9 9.0 62 3.8 E 22 33 12 18 1027.8 1027.4 0.0
26/07:00pm 16.1 12.4 10.0 67 3.2 ESE 20 26 11 14 1027.5 1027.1 0.0
26/06:30pm 15.9 12.2 10.0 68 3.1 ESE 20 24 11 13 1027.2 1026.8 0.0
26/06:00pm 16.8 12.0 10.2 65 3.5 ESE 26 32 14 17 1027.0 1026.6 0.0
26/05:30pm 17.8 12.6 10.2 61 4.1 ESE 28 35 15 19 1026.9 1026.5 0.0
26/05:00pm 18.8 13.2 10.1 57 4.7 ESE 30 39 16 21 1026.6 1026.2 0.0
26/04:30pm 20.1 13.9 9.9 52 5.5 ESE 33 43 18 23 1026.5 1026.1 0.0
26/04:00pm 21.2 15.0 10.1 49 6.0 ESE 33 48 18 26 1026.5 1026.1 0.0
26/03:30pm 21.7 15.1 9.9 47 6.4 SE 35 46 19 25 1026.4 1026.0 0.0
26/03:28pm 21.5 15.3 10.0 48 6.3 SE 33 46 18 25 1026.4 1026.0 0.0
26/03:00pm 24.1 19.4 5.0 29 9.6 E 19 28 10 15 1026.6 1026.2 0.0
26/02:30pm 24.0 19.8 5.8 31 9.3 E 17 26 9 14 1027.0 1026.6 0.0
26/02:00pm 23.6 19.1 6.0 32 9.0 E 19 30 10 16 1027.3 1026.9 0.0
26/01:30pm 23.6 19.4 7.3 35 8.6 E 19 28 10 15 1027.8 1027.4 0.0
26/01:00pm 22.2 17.9 7.2 38 7.7 E 19 32 10 17 1028.2 1027.8 0.0
26/12:30pm 21.7 17.5 7.5 40 7.4 E 19 32 10 17 1028.7 1028.3 0.0
26/12:00pm 20.9 16.8 7.9 43 6.7 E 19 26 10 14 1029.1 1028.7 0.0
26/11:30am 20.7 16.9 7.7 43 6.8 ENE 17 28 9 15 1029.5 1029.1 0.0
26/11:00am 20.1 16.4 8.1 46 6.2 NE 17 26 9 14 1030.2 1029.8 0.0
26/10:30am 19.3 15.7 8.3 49 5.7 NE 17 24 9 13 1030.6 1030.2 0.0
26/10:00am 18.4 14.3 7.8 50 5.4 ENE 19 30 10 16 1031.0 1030.6 0.0
26/09:30am 18.1 14.0 8.7 54 4.9 ENE 20 32 11 17 1031.4 1030.9 0.0
26/09:00am 17.4 13.8 8.5 56 4.6 ENE 17 28 9 15 1031.6 1031.1 1.6
26/08:30am 16.1 12.9 8.6 61 3.9 NE 15 20 8 11 1031.8 1031.3 1.6
26/08:00am 14.8 12.4 8.7 67 3.1 NNE 11 17 6 9 1031.8 1031.3 1.6
26/07:30am 13.5 11.0 8.1 70 2.7 ENE 11 15 6 8 1031.5 1031.0 1.6
26/07:00am 12.7 10.4 7.6 71 2.5 ENE 9 15 5 8 1031.2 1030.7 1.6
26/06:30am 11.4 9.1 7.3 76 2.0 ENE 9 13 5 7 1030.8 1030.4 1.6
26/06:00am 10.6 8.2 6.9 78 1.7 ENE 9 15 5 8 1030.5 1030.1 1.6
26/05:30am 10.5 7.7 6.8 78 1.8 ENE 11 15 6 8 1030.4 1030.0 1.6
26/05:00am 10.8 8.4 6.9 77 1.8 NE 9 13 5 7 1030.2 1029.8 1.6
26/04:30am 10.7 8.3 6.8 77 1.9 ENE 9 15 5 8 1029.9 1029.5 1.6
26/04:00am 11.2 8.4 7.1 76 2.0 NE 11 17 6 9 1029.9 1029.5 1.6
26/03:30am 10.9 8.5 7.0 77 1.9 NE 9 15 5 8 1029.9 1029.5 1.6
26/03:00am 10.9 8.1 7.0 77 1.9 ENE 11 17 6 9 1029.8 1029.4 1.6
26/02:30am 10.9 8.5 7.2 78 1.8 NE 9 13 5 7 1029.8 1029.4 1.6
26/02:00am 11.1 8.4 7.2 77 1.9 NE 11 17 6 9 1029.9 1029.5 1.6
26/01:30am 11.1 8.4 7.4 78 1.8 NE 11 15 6 8 1030.2 1029.8 1.6
26/01:00am 10.9 8.2 7.4 79 1.7 NE 11 15 6 8 1030.3 1029.9 1.6
26/12:30am 11.1 8.8 7.4 78 1.8 ENE 9 13 5 7 1030.4 1030.0 1.6
26/12:00am 10.6 8.3 7.3 80 1.6 NE 9 15 5 8 1030.3 1029.9 1.6
 
Date/Time
WST
Temp
°C
App
Temp
°C
Dew
Point
Rel
Hum
%
Delta-T
°C
Wind Press
QNH
hPa
Press
MSL
hPa
Rain
since 9 am
mm
Dir
 
Spd
km/h
Gust
km/h
Spd
kts
Gust
kts
25/11:30pm 10.8 8.6 7.7 81 1.5 ENE 9 13 5 7 1030.1 1029.7 1.6
25/11:00pm 11.4 8.8 7.9 79 1.7 E 11 17 6 9 1030.0 1029.6 1.6
25/10:30pm 11.8 8.2 8.3 79 1.7 E 17 22 9 12 1029.9 1029.5 1.6
25/10:00pm 12.2 8.7 8.7 79 1.7 E 17 22 9 12 1030.1 1029.7 1.6
25/09:30pm 12.3 9.2 8.8 79 1.8 E 15 19 8 10 1030.1 1029.7 1.6
25/09:00pm 12.7 9.3 9.0 78 1.9 E 17 20 9 11 1030.2 1029.8 1.6
25/08:30pm 12.9 9.8 9.0 77 2.0 E 15 20 8 11 1030.4 1030.0 1.6
25/08:00pm 13.2 9.8 9.1 76 2.1 E 17 22 9 12 1030.1 1029.7 1.6
25/07:30pm 13.4 10.4 9.3 76 2.1 E 15 20 8 11 1030.0 1029.6 1.6
25/07:00pm 13.9 10.6 9.5 75 2.3 E 17 20 9 11 1029.6 1029.2 1.6
25/06:30pm 14.3 10.5 9.7 74 2.4 ESE 20 28 11 15 1029.4 1029.0 1.6
25/06:00pm 14.9 9.9 9.7 71 2.7 ESE 26 33 14 18 1029.2 1028.8 1.6
25/05:30pm 15.8 10.5 9.9 68 3.1 ESE 28 37 15 20 1028.9 1028.5 1.6
25/05:00pm 16.8 11.6 10.2 65 3.5 SE 28 37 15 20 1028.7 1028.3 1.6
25/04:30pm 17.7 12.2 10.6 63 3.8 SE 30 37 16 20 1028.3 1027.9 1.6
25/04:00pm 17.4 12.5 11.2 67 3.4 SE 28 39 15 21 1028.3 1027.9 1.6
25/03:30pm 17.2 12.4 11.5 69 3.1 SE 28 35 15 19 1028.3 1027.9 1.6
25/03:00pm 17.2 12.9 12.1 72 2.8 SE 26 35 14 19 1028.2 1027.8 1.6
25/02:30pm 17.1 12.2 12.4 74 2.6 ESE 30 39 16 21 1028.2 1027.8 1.6
25/02:00pm 16.8 12.3 12.7 77 2.3 ESE 28 37 15 20 1028.1 1027.7 1.6
25/01:59pm 16.8 12.3 12.7 77 2.3 ESE 28 37 15 20 1028.1 1027.7 1.6
25/01:30pm 16.2 12.5 13.9 86 1.3 SE 26 32 14 17 1028.2 1027.8 1.6
25/01:28pm 16.1 12.4 13.8 86 1.3 SE 26 32 14 17 1028.2 1027.8 1.6
25/01:00pm 16.7 12.3 14.2 85 1.4 SE 30 39 16 21 1028.1 1027.7 1.4
25/12:47pm 16.2 14.1 15.1 93 0.6 SE 20 30 11 16 1028.2 1027.8 1.4
25/12:30pm 15.2 12.0 14.2 94 0.6 SSE 24 32 13 17 1028.3 1027.9 1.4
25/12:01pm 16.2 13.6 13.9 86 1.3 SSE 20 28 11 15 1028.5 1028.1 0.0
25/12:00pm 16.0 13.2 13.3 84 1.5 SSE 20 28 11 15 1028.5 1028.1 0.0
25/11:30am 18.0 14.3 12.7 71 3.0 ESE 24 32 13 17 1028.6 1028.2 0.0
25/11:00am 18.6 16.0 13.7 73 2.8 SE 20 28 11 15 1028.7 1028.3 0.0
25/10:30am 18.3 15.6 13.0 71 3.0 S 19 24 10 13 1028.7 1028.3 0.0
25/10:00am 18.0 14.0 12.9 72 2.9 SSW 26 33 14 18 1028.7 1028.3 0.0
25/09:45am 18.2 14.7 11.0 63 3.9 SSW 20 33 11 18 1028.4 1028.0 0.0
25/09:30am 19.4 18.2 11.7 61 4.3 S 9 15 5 8 1028.3 1027.9 0.0
25/09:00am 18.1 17.6 11.9 67 3.4 W 6 13 3 7 1028.2 1027.8 0.0
25/08:30am 16.8 15.0 10.9 68 3.2 WNW 11 13 6 7 1028.1 1027.7 0.0
25/08:00am 15.5 14.0 10.5 72 2.6 WNW 9 11 5 6 1027.9 1027.5 0.0
25/07:30am 13.6 12.3 10.0 79 1.9 NNW 7 11 4 6 1027.5 1027.1 0.0
25/07:00am 12.1 10.8 9.8 86 1.2 NNW 7 9 4 5 1027.3 1026.9 0.0
25/06:30am 10.6 8.7 9.0 90 0.8 NNW 9 11 5 6 1027.0 1026.6 0.0

Other Formats:

Comma delimited format used in spreadsheet applications
http://www.bom.gov.au/fwo/IDW60801/IDW60801.95638.axf

JavaScript Object Notation format (JSON) in row-major order
http://www.bom.gov.au/fwo/IDW60801/IDW60801.95638.json